createdAt,value
2023-11-21T00:01:04.753Z,8.6
2023-11-21T00:02:21.857Z,8.6
2023-11-21T00:03:38.962Z,8.5
2023-11-21T00:04:56.067Z,8.6
2023-11-21T00:06:13.171Z,8.6
2023-11-21T00:07:30.276Z,8.7
2023-11-21T00:08:47.380Z,8.7
2023-11-21T00:10:04.485Z,8.7
2023-11-21T00:11:21.590Z,8.7
2023-11-21T00:12:38.695Z,8.7
2023-11-21T00:13:55.799Z,8.7
2023-11-21T00:15:12.904Z,8.7
2023-11-21T00:16:29.025Z,8.8
2023-11-21T00:17:46.129Z,8.8
2023-11-21T00:19:03.234Z,8.8
2023-11-21T00:20:20.338Z,8.7
2023-11-21T00:21:37.443Z,8.8
2023-11-21T00:22:54.548Z,8.8
2023-11-21T00:24:11.652Z,8.8
2023-11-21T00:25:28.757Z,8.8
2023-11-21T00:26:45.862Z,8.9
2023-11-21T00:28:02.966Z,8.9
2023-11-21T00:29:20.071Z,8.9
2023-11-21T00:30:37.176Z,8.8
2023-11-21T00:31:54.281Z,8.9
2023-11-21T00:33:10.402Z,8.9
2023-11-21T00:34:27.506Z,8.8
2023-11-21T00:35:44.611Z,8.8
2023-11-21T00:37:01.715Z,8.8
2023-11-21T00:38:18.820Z,8.9
2023-11-21T00:39:35.925Z,8.9
2023-11-21T00:40:52.046Z,8.9
2023-11-21T00:42:09.151Z,8.9
2023-11-21T00:43:26.256Z,8.9
2023-11-21T00:44:43.361Z,8.9
2023-11-21T00:46:00.466Z,8.9
2023-11-21T00:47:17.570Z,8.9
2023-11-21T00:48:34.675Z,8.8
2023-11-21T00:49:51.780Z,8.7
2023-11-21T00:51:08.884Z,8.7
2023-11-21T00:52:25.989Z,8.7
2023-11-21T00:53:43.094Z,8.7
2023-11-21T00:55:00.199Z,8.8
2023-11-21T00:56:17.303Z,8.8
2023-11-21T00:57:33.424Z,8.7
2023-11-21T00:58:50.529Z,8.7
2023-11-21T01:00:07.633Z,8.8
2023-11-21T01:01:24.738Z,8.8
2023-11-21T01:02:41.843Z,8.7
2023-11-21T01:03:58.947Z,8.7
2023-11-21T01:05:16.052Z,8.7
2023-11-21T01:06:33.157Z,8.7
2023-11-21T01:07:50.261Z,8.7
2023-11-21T01:09:07.366Z,8.7
2023-11-21T01:10:24.471Z,8.7
2023-11-21T01:11:41.575Z,8.7
2023-11-21T01:12:58.680Z,8.8
2023-11-21T01:14:14.801Z,8.7
2023-11-21T01:15:31.905Z,8.7
2023-11-21T01:16:49.010Z,8.6
2023-11-21T01:18:06.115Z,8.6
2023-11-21T01:19:23.220Z,8.6
2023-11-21T01:20:40.324Z,8.6
2023-11-21T01:21:57.429Z,8.7
2023-11-21T01:23:14.534Z,8.7
2023-11-21T01:24:31.638Z,8.7
2023-11-21T01:25:48.743Z,8.8
2023-11-21T01:27:05.847Z,8.8
2023-11-21T01:28:22.952Z,8.7
2023-11-21T01:29:40.057Z,8.7
2023-11-21T01:30:56.177Z,8.7
2023-11-21T01:32:13.282Z,8.7
2023-11-21T01:33:30.387Z,8.7
2023-11-21T01:34:47.491Z,8.7
2023-11-21T01:36:04.596Z,8.8
2023-11-21T01:37:21.700Z,8.8
2023-11-21T01:38:38.805Z,8.8
2023-11-21T01:39:55.910Z,8.9
2023-11-21T01:41:13.015Z,8.9
2023-11-21T01:42:30.119Z,8.9
2023-11-21T01:43:47.224Z,9
2023-11-21T01:45:04.328Z,9.1
2023-11-21T01:46:21.433Z,9.1
2023-11-21T01:47:37.554Z,9.1
2023-11-21T01:48:54.658Z,9.1
2023-11-21T01:50:11.763Z,9.2
2023-11-21T01:51:28.868Z,9.1
2023-11-21T01:52:45.972Z,9.2
2023-11-21T01:54:03.077Z,9.3
2023-11-21T01:55:20.182Z,9.1
2023-11-21T01:56:37.286Z,9.1
2023-11-21T01:57:54.391Z,9.1
2023-11-21T01:59:11.496Z,9.1
2023-11-21T02:00:28.600Z,9.1
2023-11-21T02:01:45.705Z,9.1
2023-11-21T02:03:02.810Z,9.1
2023-11-21T02:04:18.931Z,9.2
2023-11-21T02:05:36.035Z,9.2
2023-11-21T02:06:53.140Z,9.2
2023-11-21T02:08:10.245Z,9.3
2023-11-21T02:09:27.349Z,9.3
2023-11-21T02:10:44.454Z,9.3
2023-11-21T02:12:01.558Z,9.3
2023-11-21T02:13:18.663Z,9.4
2023-11-21T02:14:35.765Z,9.4
2023-11-21T02:15:52.870Z,9.4
2023-11-21T02:17:09.974Z,9.4
2023-11-21T02:18:27.079Z,9.4
2023-11-21T02:19:44.183Z,9.4
2023-11-21T02:21:00.304Z,9.3
2023-11-21T02:22:17.408Z,9.4
2023-11-21T02:23:34.513Z,9.4
2023-11-21T02:24:51.617Z,9.4
2023-11-21T02:26:08.722Z,9.4
2023-11-21T02:27:25.826Z,9.4
2023-11-21T02:28:42.930Z,9.4
2023-11-21T02:30:00.035Z,9.4
2023-11-21T02:31:17.140Z,9.3
2023-11-21T02:32:34.244Z,9.4
2023-11-21T02:33:51.349Z,9.3
2023-11-21T02:35:08.454Z,9.3
2023-11-21T02:36:25.558Z,9.3
2023-11-21T02:37:41.679Z,9.3
2023-11-21T02:38:58.783Z,9.3
2023-11-21T02:40:15.888Z,9.3
2023-11-21T02:41:32.993Z,9.3
2023-11-21T02:42:50.098Z,9.3
2023-11-21T02:44:07.203Z,9.3
2023-11-21T02:45:24.308Z,9.3
2023-11-21T02:46:41.413Z,9.4
2023-11-21T02:47:58.517Z,9.3
2023-11-21T02:49:15.622Z,9.3
2023-11-21T02:50:32.726Z,9.3
2023-11-21T02:51:49.831Z,9.1
2023-11-21T02:53:06.936Z,9.1
2023-11-21T02:54:23.056Z,9.1
2023-11-21T02:55:40.161Z,9.1
2023-11-21T02:56:57.266Z,9.1
2023-11-21T02:58:14.371Z,9
2023-11-21T02:59:31.476Z,8.9
2023-11-21T03:00:48.580Z,8.8
2023-11-21T03:02:05.684Z,8.9
2023-11-21T03:03:22.789Z,8.9
2023-11-21T03:04:39.893Z,8.9
2023-11-21T03:05:56.998Z,8.9
2023-11-21T03:07:14.103Z,8.9
2023-11-21T03:08:31.208Z,9
2023-11-21T03:09:48.312Z,8.9
2023-11-21T03:11:04.433Z,8.9
2023-11-21T03:12:21.538Z,9
2023-11-21T03:13:38.642Z,8.9
2023-11-21T03:14:55.747Z,8.9
2023-11-21T03:16:12.851Z,8.8
2023-11-21T03:17:29.956Z,8.8
2023-11-21T03:18:47.060Z,8.9
2023-11-21T03:20:04.165Z,8.9
2023-11-21T03:21:21.270Z,8.9
2023-11-21T03:22:38.374Z,8.9
2023-11-21T03:23:55.479Z,8.9
2023-11-21T03:25:12.583Z,8.9
2023-11-21T03:26:29.688Z,8.9
2023-11-21T03:27:45.809Z,8.9
2023-11-21T03:29:02.913Z,9
2023-11-21T03:30:20.018Z,9
2023-11-21T03:31:37.123Z,9
2023-11-21T03:32:54.227Z,9
2023-11-21T03:34:11.332Z,9
2023-11-21T03:35:28.437Z,9
2023-11-21T03:36:45.541Z,9.1
2023-11-21T03:38:02.646Z,9
2023-11-21T03:39:19.751Z,9
2023-11-21T03:40:36.855Z,9
2023-11-21T03:41:53.960Z,9
2023-11-21T03:43:11.065Z,9
2023-11-21T03:44:27.186Z,9
2023-11-21T03:45:44.290Z,8.9
2023-11-21T03:47:01.395Z,9
2023-11-21T03:48:18.499Z,9
2023-11-21T03:49:35.604Z,9
2023-11-21T03:50:52.708Z,9.1
2023-11-21T03:52:09.814Z,9.2
2023-11-21T03:53:26.919Z,9.2
2023-11-21T03:54:44.023Z,9.3
2023-11-21T03:56:01.128Z,9.3
2023-11-21T03:57:18.232Z,9.3
2023-11-21T03:58:35.337Z,9.2
2023-11-21T03:59:52.441Z,9.2
2023-11-21T04:01:08.562Z,9.2
2023-11-21T04:02:25.667Z,9.2
2023-11-21T04:03:42.771Z,9.2
2023-11-21T04:04:59.876Z,9.2
2023-11-21T04:06:16.980Z,9.2
2023-11-21T04:07:34.085Z,9.1
2023-11-21T04:08:51.190Z,9.1
2023-11-21T04:10:08.294Z,9
2023-11-21T04:11:25.399Z,9.1
2023-11-21T04:12:42.503Z,9.1
2023-11-21T04:13:59.608Z,9.1
2023-11-21T04:15:16.713Z,9.1
2023-11-21T04:16:33.817Z,9.1
2023-11-21T04:17:49.938Z,9.1
2023-11-21T04:19:07.042Z,9
2023-11-21T04:20:24.146Z,9
2023-11-21T04:21:41.251Z,9
2023-11-21T04:22:58.356Z,9.1
2023-11-21T04:24:15.460Z,9.1
2023-11-21T04:25:32.565Z,9
2023-11-21T04:26:49.670Z,9
2023-11-21T04:28:06.774Z,9
2023-11-21T04:29:23.879Z,9
2023-11-21T04:30:40.983Z,9
2023-11-21T04:31:58.088Z,9
2023-11-21T04:33:15.192Z,9
2023-11-21T04:34:31.313Z,9
2023-11-21T04:35:48.418Z,9
2023-11-21T04:37:05.522Z,9
2023-11-21T04:38:22.627Z,9
2023-11-21T04:39:39.732Z,9
2023-11-21T04:40:56.836Z,9.1
2023-11-21T04:42:13.941Z,9.1
2023-11-21T04:43:31.045Z,9.1
2023-11-21T04:44:48.149Z,9.1
2023-11-21T04:46:05.254Z,9.1
2023-11-21T04:47:22.359Z,9.1
2023-11-21T04:48:39.463Z,9.1
2023-11-21T04:49:56.568Z,9.1
2023-11-21T04:51:12.689Z,9.1
2023-11-21T04:52:29.793Z,9.2
2023-11-21T04:53:46.898Z,9.1
2023-11-21T04:55:04.002Z,9.2
2023-11-21T04:56:21.107Z,9.2
2023-11-21T04:57:38.211Z,9.2
2023-11-21T04:58:54.332Z,9.2
2023-11-21T05:00:11.436Z,9.3
2023-11-21T05:01:28.541Z,9.3
2023-11-21T05:02:45.645Z,9.2
2023-11-21T05:04:02.750Z,9.2
2023-11-21T05:05:19.855Z,9.2
2023-11-21T05:06:36.959Z,9.2
2023-11-21T05:07:54.063Z,9.2
2023-11-21T05:09:11.168Z,9.2
2023-11-21T05:10:28.272Z,9.1
2023-11-21T05:11:45.377Z,9.2
2023-11-21T05:13:02.482Z,9.3
2023-11-21T05:14:19.586Z,9.3
2023-11-21T05:15:35.707Z,9.3
2023-11-21T05:16:52.812Z,9.3
2023-11-21T05:18:09.916Z,9.3
2023-11-21T05:19:27.021Z,9.3
2023-11-21T05:20:44.126Z,9.4
2023-11-21T05:22:01.230Z,9.4
2023-11-21T05:23:18.335Z,9.4
2023-11-21T05:24:35.440Z,9.4
2023-11-21T05:25:52.544Z,9.3
2023-11-21T05:27:09.649Z,9.3
2023-11-21T05:28:26.754Z,9.3
2023-11-21T05:29:43.858Z,9.2
2023-11-21T05:31:00.963Z,9.2
2023-11-21T05:32:17.083Z,9.2
2023-11-21T05:33:34.188Z,9.1
2023-11-21T05:34:51.293Z,9.2
2023-11-21T05:36:08.397Z,9.2
2023-11-21T05:37:25.502Z,9.3
2023-11-21T05:38:42.606Z,9.3
2023-11-21T05:39:59.711Z,9.4
2023-11-21T05:41:16.815Z,9.3
2023-11-21T05:42:33.920Z,9.3
2023-11-21T05:43:51.024Z,9.3
2023-11-21T05:45:08.129Z,9.3
2023-11-21T05:46:25.234Z,9.3
2023-11-21T05:47:42.338Z,9.3
2023-11-21T05:48:58.459Z,9.3
2023-11-21T05:50:15.564Z,9.2
2023-11-21T05:51:32.668Z,9.2
2023-11-21T05:52:49.773Z,9.2
2023-11-21T05:54:06.877Z,9.3
2023-11-21T05:55:23.982Z,9.4
2023-11-21T05:56:41.087Z,9.3
2023-11-21T05:57:58.191Z,9.3
2023-11-21T05:59:15.296Z,9.4
2023-11-21T06:00:32.400Z,9.4
2023-11-21T06:01:49.505Z,9.3
2023-11-21T06:03:06.609Z,9.3
2023-11-21T06:04:23.714Z,9.4
2023-11-21T06:05:39.834Z,9.3
2023-11-21T06:06:56.939Z,9.3
2023-11-21T06:08:14.044Z,9.3
2023-11-21T06:09:31.149Z,9.2
2023-11-21T06:10:48.254Z,9.2
2023-11-21T06:12:05.358Z,9.2
2023-11-21T06:13:22.462Z,9.2
2023-11-21T06:14:39.567Z,9.2
2023-11-21T06:15:56.671Z,9.1
2023-11-21T06:17:13.776Z,9.1
2023-11-21T06:18:30.881Z,9
2023-11-21T06:19:47.985Z,9
2023-11-21T06:21:05.090Z,9
2023-11-21T06:22:21.211Z,8.9
2023-11-21T06:23:38.315Z,8.9
2023-11-21T06:24:55.420Z,8.9
2023-11-21T06:26:12.524Z,8.9
2023-11-21T06:27:29.629Z,9
2023-11-21T06:28:46.734Z,9
2023-11-21T06:30:03.839Z,9
2023-11-21T06:31:20.944Z,9.1
2023-11-21T06:32:38.049Z,9
2023-11-21T06:33:55.153Z,9.1
2023-11-21T06:35:12.258Z,9.1
2023-11-21T06:36:29.363Z,9.1
2023-11-21T06:37:46.467Z,9.1
2023-11-21T06:39:02.588Z,9.1
2023-11-21T06:40:19.693Z,9.2
2023-11-21T06:41:36.797Z,9.1
2023-11-21T06:42:53.902Z,9.2
2023-11-21T06:44:11.007Z,9.2
2023-11-21T06:45:28.111Z,9.3
2023-11-21T06:46:45.216Z,9.3
2023-11-21T06:48:02.320Z,9.3
2023-11-21T06:49:19.425Z,9.2
2023-11-21T06:50:36.530Z,9.2
2023-11-21T06:51:53.635Z,9.2
2023-11-21T06:53:10.739Z,9.2
2023-11-21T06:54:27.844Z,9.1
2023-11-21T06:55:43.965Z,9.1
2023-11-21T06:57:01.069Z,9.2
2023-11-21T06:58:18.174Z,9.2
2023-11-21T06:59:35.279Z,9.1
2023-11-21T07:00:52.384Z,9.2
2023-11-21T07:02:09.489Z,9.2
2023-11-21T07:03:26.594Z,9.2
2023-11-21T07:04:43.698Z,9.2
2023-11-21T07:06:00.803Z,9.2
2023-11-21T07:07:17.907Z,9.2
2023-11-21T07:08:35.012Z,9.1
2023-11-21T07:09:52.116Z,9.2
2023-11-21T07:11:09.220Z,9.1
2023-11-21T07:12:25.341Z,9.2
2023-11-21T07:13:42.446Z,9.2
2023-11-21T07:14:59.550Z,9.2
2023-11-21T07:16:16.655Z,9.2
2023-11-21T07:17:33.759Z,9.2
2023-11-21T07:18:50.863Z,9.1
2023-11-21T07:20:07.969Z,9.1
2023-11-21T07:21:25.073Z,9.1
2023-11-21T07:22:42.178Z,9.1
2023-11-21T07:23:59.282Z,9
2023-11-21T07:25:16.387Z,9
2023-11-21T07:26:33.492Z,9
2023-11-21T07:27:50.597Z,8.9
2023-11-21T07:29:06.717Z,8.9
2023-11-21T07:30:23.822Z,8.8
2023-11-21T07:31:40.926Z,8.9
2023-11-21T07:32:58.031Z,8.8
2023-11-21T07:34:15.136Z,8.7
2023-11-21T07:35:32.240Z,8.8
2023-11-21T07:36:49.345Z,8.8
2023-11-21T07:38:06.450Z,8.8
2023-11-21T07:39:23.554Z,8.8
2023-11-21T07:40:40.659Z,8.7
2023-11-21T07:41:57.764Z,8.7
2023-11-21T07:43:14.868Z,8.8
2023-11-21T07:44:31.973Z,8.9
2023-11-21T07:45:48.093Z,8.9
2023-11-21T07:47:05.198Z,8.9
2023-11-21T07:48:22.303Z,9
2023-11-21T07:49:39.407Z,9
2023-11-21T07:50:56.512Z,9
2023-11-21T07:52:13.616Z,9.2
2023-11-21T07:53:30.721Z,9.2
2023-11-21T07:54:47.826Z,9.3
2023-11-21T07:56:04.930Z,9.4
2023-11-21T07:57:22.035Z,9.5
2023-11-21T07:58:39.139Z,9.6
2023-11-21T07:59:56.244Z,9.8
2023-11-21T08:01:13.348Z,9.8
2023-11-21T08:02:29.469Z,9.9
2023-11-21T08:03:46.573Z,10
2023-11-21T08:05:03.677Z,10.2
2023-11-21T08:06:20.782Z,10.1
2023-11-21T08:07:37.886Z,10.1
2023-11-21T08:08:54.990Z,10.2
2023-11-21T08:10:12.095Z,10.2
2023-11-21T08:11:29.199Z,10
2023-11-21T08:12:46.303Z,9.9
2023-11-21T08:14:03.408Z,9.9
2023-11-21T08:15:20.512Z,10
2023-11-21T08:16:37.616Z,10
2023-11-21T08:17:54.720Z,10.1
2023-11-21T08:19:10.841Z,10.1
2023-11-21T08:20:27.945Z,10.2
2023-11-21T08:21:45.050Z,10.3
2023-11-21T08:23:02.154Z,10.4
2023-11-21T08:24:19.258Z,10.4
2023-11-21T08:25:36.362Z,10.5
2023-11-21T08:26:53.466Z,10.6
2023-11-21T08:28:10.571Z,10.7
2023-11-21T08:29:27.675Z,10.7
2023-11-21T08:30:44.779Z,10.8
2023-11-21T08:32:01.884Z,10.8
2023-11-21T08:33:18.988Z,10.9
2023-11-21T08:34:36.092Z,10.9
2023-11-21T08:35:52.213Z,10.9
2023-11-21T08:37:09.315Z,10.9
2023-11-21T08:38:26.419Z,10.9
2023-11-21T08:39:43.523Z,10.9
2023-11-21T08:41:00.627Z,10.9
2023-11-21T08:42:17.732Z,11
2023-11-21T08:43:34.837Z,11.2
2023-11-21T08:44:51.941Z,11.3
2023-11-21T08:46:09.045Z,11.4
2023-11-21T08:47:26.150Z,11.5
2023-11-21T08:48:43.255Z,11.5
2023-11-21T08:50:00.360Z,11.6
2023-11-21T08:51:17.464Z,11.7
2023-11-21T08:52:33.585Z,11.7
2023-11-21T08:53:50.689Z,11.7
2023-11-21T08:55:07.794Z,11.6
2023-11-21T08:56:24.899Z,11.6
2023-11-21T08:57:42.003Z,11.7
2023-11-21T08:58:59.107Z,11.8
2023-11-21T09:00:16.212Z,11.9
2023-11-21T09:01:33.316Z,11.9
2023-11-21T09:02:50.421Z,12
2023-11-21T09:04:07.525Z,12
2023-11-21T09:05:24.630Z,12
2023-11-21T09:06:41.734Z,12
2023-11-21T09:07:58.839Z,12.1
2023-11-21T09:09:14.959Z,12.1
2023-11-21T09:10:32.064Z,12.1
2023-11-21T09:11:49.168Z,12.1
2023-11-21T09:13:06.272Z,12
2023-11-21T09:14:23.376Z,12
2023-11-21T09:15:40.480Z,11.9
2023-11-21T09:16:56.601Z,11.9
2023-11-21T09:18:13.705Z,12
2023-11-21T09:19:30.809Z,12
2023-11-21T09:20:47.913Z,11.9
2023-11-21T09:22:05.018Z,11.8
2023-11-21T09:23:22.122Z,11.8
2023-11-21T09:24:39.227Z,11.9
2023-11-21T09:25:56.331Z,11.8
2023-11-21T09:27:13.435Z,11.7
2023-11-21T09:28:30.540Z,11.7
2023-11-21T09:29:47.644Z,11.5
2023-11-21T09:31:04.748Z,11.4
2023-11-21T09:32:21.852Z,11.5
2023-11-21T09:33:37.973Z,11.5
2023-11-21T09:34:55.077Z,11.7
2023-11-21T09:36:12.182Z,11.6
2023-11-21T09:37:29.286Z,11.6
2023-11-21T09:38:46.391Z,11.6
2023-11-21T09:40:03.496Z,11.6
2023-11-21T09:41:20.600Z,11.5
2023-11-21T09:42:37.705Z,11.5
2023-11-21T09:43:54.809Z,11.6
2023-11-21T09:45:11.914Z,11.6
2023-11-21T09:46:29.018Z,11.6
2023-11-21T09:47:46.123Z,11.4
2023-11-21T09:49:03.227Z,11.4
2023-11-21T09:50:19.348Z,11.3
2023-11-21T09:51:36.453Z,11.4
2023-11-21T09:52:53.558Z,11.5
2023-11-21T09:54:10.662Z,11.5
2023-11-21T09:55:27.767Z,11.5
2023-11-21T09:56:44.871Z,11.5
2023-11-21T09:58:01.976Z,11.7
2023-11-21T09:59:19.080Z,11.6
2023-11-21T10:00:36.185Z,11.6
2023-11-21T10:01:53.289Z,11.7
2023-11-21T10:03:10.394Z,11.7
2023-11-21T10:04:27.498Z,11.7
2023-11-21T10:05:44.602Z,11.7
2023-11-21T10:07:00.723Z,11.7
2023-11-21T10:08:17.827Z,11.6
2023-11-21T10:09:34.932Z,11.6
2023-11-21T10:10:52.036Z,11.6
2023-11-21T10:12:09.141Z,11.5
2023-11-21T10:13:26.245Z,11.6
2023-11-21T10:14:43.350Z,11.6
2023-11-21T10:16:00.454Z,11.6
2023-11-21T10:17:17.559Z,11.7
2023-11-21T10:18:34.663Z,11.8
2023-11-21T10:19:51.768Z,11.9
2023-11-21T10:21:08.872Z,11.9
2023-11-21T10:22:25.977Z,11.8
2023-11-21T10:23:42.097Z,11.8
2023-11-21T10:24:59.202Z,11.8
2023-11-21T10:26:16.307Z,11.8
2023-11-21T10:27:33.411Z,11.8
2023-11-21T10:28:50.516Z,11.9
2023-11-21T10:30:07.620Z,11.9
2023-11-21T10:31:24.725Z,11.8
2023-11-21T10:32:41.829Z,11.7
2023-11-21T10:33:58.933Z,11.6
2023-11-21T10:35:16.038Z,11.6
2023-11-21T10:36:33.143Z,11.6
2023-11-21T10:37:50.247Z,11.6
2023-11-21T10:39:07.352Z,11.6
2023-11-21T10:40:23.473Z,11.6
2023-11-21T10:41:40.577Z,11.6
2023-11-21T10:42:57.681Z,11.6
2023-11-21T10:44:14.785Z,11.6
2023-11-21T10:45:31.889Z,11.6
2023-11-21T10:46:48.993Z,11.6
2023-11-21T10:48:06.098Z,11.7
2023-11-21T10:49:23.202Z,11.8
2023-11-21T10:50:40.307Z,11.9
2023-11-21T10:51:57.411Z,11.9
2023-11-21T10:53:14.516Z,11.9
2023-11-21T10:54:31.620Z,11.9
2023-11-21T10:55:48.724Z,11.9
2023-11-21T10:57:04.844Z,11.9
2023-11-21T10:58:21.948Z,11.8
2023-11-21T10:59:39.052Z,11.7
2023-11-21T11:00:56.156Z,11.7
2023-11-21T11:02:13.261Z,11.7
2023-11-21T11:03:30.365Z,11.7
2023-11-21T11:04:47.469Z,11.7
2023-11-21T11:06:04.573Z,11.9
2023-11-21T11:07:21.677Z,11.9
2023-11-21T11:08:38.781Z,11.9
2023-11-21T11:09:55.885Z,11.9
2023-11-21T11:11:12.989Z,11.9
2023-11-21T11:12:30.093Z,11.8
2023-11-21T11:13:46.213Z,11.9
2023-11-21T11:15:03.317Z,11.8
2023-11-21T11:16:20.421Z,11.7
2023-11-21T11:17:37.525Z,11.9
2023-11-21T11:18:54.629Z,11.9
2023-11-21T11:20:11.733Z,12
2023-11-21T11:21:28.837Z,12.1
2023-11-21T11:22:45.941Z,12.2
2023-11-21T11:24:03.045Z,12.2
2023-11-21T11:25:20.149Z,12.1
2023-11-21T11:26:37.253Z,12
2023-11-21T11:27:54.357Z,12
2023-11-21T11:29:11.461Z,12
2023-11-21T11:30:27.581Z,12
2023-11-21T11:31:44.686Z,12.1
2023-11-21T11:33:01.790Z,12.1
2023-11-21T11:34:18.894Z,11.9
2023-11-21T11:35:35.998Z,11.9
2023-11-21T11:36:53.102Z,12
2023-11-21T11:38:10.206Z,12
2023-11-21T11:39:27.310Z,11.9
2023-11-21T11:40:44.414Z,11.9
2023-11-21T11:42:01.519Z,12
2023-11-21T11:43:18.623Z,12
2023-11-21T11:44:35.727Z,12.1
2023-11-21T11:45:52.831Z,12.1
2023-11-21T11:47:08.951Z,12
2023-11-21T11:48:26.055Z,12.1
2023-11-21T11:49:43.159Z,12
2023-11-21T11:51:00.263Z,12
2023-11-21T11:52:17.367Z,12
2023-11-21T11:53:34.472Z,12
2023-11-21T11:54:51.576Z,12
2023-11-21T11:56:08.680Z,12.1
2023-11-21T11:57:25.784Z,12.1
2023-11-21T11:58:42.888Z,12
2023-11-21T11:59:59.992Z,12
2023-11-21T12:01:17.096Z,12.1
2023-11-21T12:02:34.200Z,12.1
2023-11-21T12:03:50.321Z,12
2023-11-21T12:05:07.425Z,12
2023-11-21T12:06:24.529Z,12
2023-11-21T12:07:41.633Z,12
2023-11-21T12:08:58.737Z,12
2023-11-21T12:10:15.841Z,12
2023-11-21T12:11:32.945Z,12
2023-11-21T12:12:50.049Z,12.1
2023-11-21T12:14:07.153Z,12.1
2023-11-21T12:15:24.258Z,12.1
2023-11-21T12:16:41.362Z,12.1
2023-11-21T12:17:58.466Z,12.2
2023-11-21T12:19:15.570Z,12.3
2023-11-21T12:20:31.690Z,12.3
2023-11-21T12:21:48.794Z,12.4
2023-11-21T12:23:05.898Z,12.5
2023-11-21T12:24:23.002Z,12.5
2023-11-21T12:25:40.106Z,12.5
2023-11-21T12:26:57.210Z,12.5
2023-11-21T12:28:14.314Z,12.4
2023-11-21T12:29:31.418Z,12.4
2023-11-21T12:30:48.522Z,12.3
2023-11-21T12:32:05.626Z,12.2
2023-11-21T12:33:22.730Z,12.1
2023-11-21T12:34:39.834Z,12.2
2023-11-21T12:35:56.939Z,12.1
2023-11-21T12:37:13.059Z,12.1
2023-11-21T12:38:30.164Z,12.1
2023-11-21T12:39:47.268Z,12
2023-11-21T12:41:04.372Z,12
2023-11-21T12:42:21.477Z,11.9
2023-11-21T12:43:38.581Z,11.7
2023-11-21T12:44:55.686Z,11.6
2023-11-21T12:46:12.790Z,11.6
2023-11-21T12:47:29.895Z,11.6
2023-11-21T12:48:47.000Z,11.6
2023-11-21T12:50:04.104Z,11.6
2023-11-21T12:51:21.209Z,11.6
2023-11-21T12:52:38.313Z,11.5
2023-11-21T12:53:54.434Z,11.4
2023-11-21T12:55:11.538Z,11.4
2023-11-21T12:56:28.643Z,11.3
2023-11-21T12:57:45.747Z,11.3
2023-11-21T12:59:02.852Z,11.2
2023-11-21T13:00:19.957Z,11.2
2023-11-21T13:01:37.061Z,11.2
2023-11-21T13:02:54.166Z,11.3
2023-11-21T13:04:11.270Z,11.3
2023-11-21T13:05:28.375Z,11.3
2023-11-21T13:06:45.479Z,11.4
2023-11-21T13:08:02.584Z,11.4
2023-11-21T13:09:19.688Z,11.4
2023-11-21T13:10:35.808Z,11.5
2023-11-21T13:11:52.913Z,11.5
2023-11-21T13:13:10.017Z,11.5
2023-11-21T13:14:27.122Z,11.4
2023-11-21T13:15:44.226Z,11.4
2023-11-21T13:17:01.331Z,11.4
2023-11-21T13:18:18.435Z,11.3
2023-11-21T13:19:35.540Z,11.3
2023-11-21T13:20:52.644Z,11.2
2023-11-21T13:22:09.749Z,11.2
2023-11-21T13:23:26.853Z,11.1
2023-11-21T13:24:43.958Z,11
2023-11-21T13:26:01.062Z,11
2023-11-21T13:27:17.183Z,11
2023-11-21T13:28:34.287Z,11.1
2023-11-21T13:29:51.391Z,11
2023-11-21T13:31:08.496Z,10.9
2023-11-21T13:32:25.600Z,10.8
2023-11-21T13:33:42.705Z,10.9
2023-11-21T13:34:58.825Z,10.9
2023-11-21T13:36:15.930Z,10.9
2023-11-21T13:37:33.034Z,10.9
2023-11-21T13:38:50.138Z,10.9
2023-11-21T13:40:07.243Z,10.9
2023-11-21T13:41:24.347Z,10.9
2023-11-21T13:42:41.451Z,10.9
2023-11-21T13:43:58.555Z,10.8
2023-11-21T13:45:15.660Z,10.8
2023-11-21T13:46:32.764Z,10.8
2023-11-21T13:47:49.869Z,10.8
2023-11-21T13:49:06.973Z,10.7
2023-11-21T13:50:24.077Z,10.8
2023-11-21T13:51:40.198Z,10.8
2023-11-21T13:52:57.302Z,10.8
2023-11-21T13:54:14.406Z,10.8
2023-11-21T13:55:31.511Z,10.7
2023-11-21T13:56:48.615Z,10.8
2023-11-21T13:58:05.720Z,10.8
2023-11-21T13:59:22.824Z,10.8
2023-11-21T14:00:39.928Z,10.8
2023-11-21T14:01:57.032Z,10.7
2023-11-21T14:03:14.137Z,10.8
2023-11-21T14:04:31.241Z,10.8
2023-11-21T14:05:48.346Z,10.8
2023-11-21T14:07:05.451Z,10.8
2023-11-21T14:08:21.571Z,10.8
2023-11-21T14:09:38.675Z,10.8
2023-11-21T14:10:55.780Z,10.8
2023-11-21T14:12:12.885Z,10.8
2023-11-21T14:13:29.989Z,10.8
2023-11-21T14:14:47.094Z,10.7
2023-11-21T14:16:04.198Z,10.8
2023-11-21T14:17:21.302Z,10.8
2023-11-21T14:18:38.407Z,10.8
2023-11-21T14:19:55.511Z,10.7
2023-11-21T14:21:12.615Z,10.8
2023-11-21T14:22:29.720Z,10.7
2023-11-21T14:23:46.824Z,10.7
2023-11-21T14:25:02.944Z,10.6
2023-11-21T14:26:20.049Z,10.6
2023-11-21T14:27:37.153Z,10.7
2023-11-21T14:28:54.257Z,10.7
2023-11-21T14:30:11.362Z,10.7
2023-11-21T14:31:28.466Z,10.7
2023-11-21T14:32:45.571Z,10.6
2023-11-21T14:34:02.675Z,10.5
2023-11-21T14:35:19.779Z,10.4
2023-11-21T14:36:36.884Z,10.4
2023-11-21T14:37:53.988Z,10.3
2023-11-21T14:39:11.092Z,10.2
2023-11-21T14:40:28.197Z,10.1
2023-11-21T14:41:44.317Z,10.1
2023-11-21T14:43:01.422Z,10
2023-11-21T14:44:18.526Z,9.9
2023-11-21T14:45:35.630Z,9.9
2023-11-21T14:46:52.734Z,9.9
2023-11-21T14:48:09.839Z,9.9
2023-11-21T14:49:26.943Z,9.8
2023-11-21T14:50:44.047Z,9.8
2023-11-21T14:52:01.152Z,9.8
2023-11-21T14:53:18.256Z,9.8
2023-11-21T14:54:35.361Z,9.7
2023-11-21T14:55:52.465Z,9.7
2023-11-21T14:57:09.569Z,9.7
2023-11-21T14:58:25.690Z,9.7
2023-11-21T14:59:42.794Z,9.7
2023-11-21T15:00:59.899Z,9.7
2023-11-21T15:02:17.003Z,9.7
2023-11-21T15:03:34.109Z,9.7
2023-11-21T15:04:51.213Z,9.7
2023-11-21T15:06:08.317Z,9.7
2023-11-21T15:07:25.422Z,9.7
2023-11-21T15:08:42.526Z,9.7
2023-11-21T15:09:59.631Z,9.7
2023-11-21T15:11:16.735Z,9.6
2023-11-21T15:12:33.839Z,9.6
2023-11-21T15:13:50.944Z,9.6
2023-11-21T15:15:07.065Z,9.6
2023-11-21T15:16:24.169Z,9.5
2023-11-21T15:17:41.274Z,9.5
2023-11-21T15:18:58.378Z,9.5
2023-11-21T15:20:15.483Z,9.5
2023-11-21T15:21:32.587Z,9.5
2023-11-21T15:22:49.692Z,9.6
2023-11-21T15:24:06.796Z,9.6
2023-11-21T15:25:23.901Z,9.5
2023-11-21T15:26:41.006Z,9.5
2023-11-21T15:27:58.110Z,9.5
2023-11-21T15:29:15.215Z,9.5
2023-11-21T15:30:32.319Z,9.5
2023-11-21T15:31:49.424Z,9.5
2023-11-21T15:33:05.545Z,9.5
2023-11-21T15:34:22.649Z,9.6
2023-11-21T15:35:39.754Z,9.6
2023-11-21T15:36:56.859Z,9.6
2023-11-21T15:38:13.963Z,9.6
2023-11-21T15:39:31.067Z,9.6
2023-11-21T15:40:48.172Z,9.6
2023-11-21T15:42:05.276Z,9.6
2023-11-21T15:43:22.381Z,9.7
2023-11-21T15:44:39.485Z,9.6
2023-11-21T15:45:56.590Z,9.6
2023-11-21T15:47:13.694Z,9.6
2023-11-21T15:48:30.799Z,9.7
2023-11-21T15:49:46.919Z,9.7
2023-11-21T15:51:04.024Z,9.6
2023-11-21T15:52:21.128Z,9.7
2023-11-21T15:53:38.232Z,9.6
2023-11-21T15:54:55.337Z,9.6
2023-11-21T15:56:12.441Z,9.6
2023-11-21T15:57:29.545Z,9.6
2023-11-21T15:58:46.650Z,9.5
2023-11-21T16:00:03.754Z,9.5
2023-11-21T16:01:20.859Z,9.5
2023-11-21T16:02:37.963Z,9.4
2023-11-21T16:03:55.068Z,9.5
2023-11-21T16:05:12.172Z,9.5
2023-11-21T16:06:28.293Z,9.5
2023-11-21T16:07:45.397Z,9.5
2023-11-21T16:09:02.501Z,9.5
2023-11-21T16:10:19.606Z,9.5
2023-11-21T16:11:36.711Z,9.5
2023-11-21T16:12:53.815Z,9.5
2023-11-21T16:14:10.920Z,9.5
2023-11-21T16:15:28.024Z,9.5
2023-11-21T16:16:45.128Z,9.5
2023-11-21T16:18:02.233Z,9.4
2023-11-21T16:19:19.337Z,9.4
2023-11-21T16:20:36.442Z,9.5
2023-11-21T16:21:53.546Z,9.4
2023-11-21T16:23:09.667Z,9.4
2023-11-21T16:24:26.771Z,9.3
2023-11-21T16:25:43.876Z,9.3
2023-11-21T16:27:00.980Z,9.3
2023-11-21T16:28:18.084Z,9.3
2023-11-21T16:29:35.189Z,9.3
2023-11-21T16:30:52.293Z,9.3
2023-11-21T16:32:09.398Z,9.3
2023-11-21T16:33:26.502Z,9.2
2023-11-21T16:34:43.607Z,9.2
2023-11-21T16:36:00.711Z,9.2
2023-11-21T16:37:17.817Z,9.2
2023-11-21T16:38:34.921Z,9.2
2023-11-21T16:39:51.041Z,9.3
2023-11-21T16:41:08.146Z,9.2
2023-11-21T16:42:25.250Z,9.3
2023-11-21T16:43:42.355Z,9.2
2023-11-21T16:44:59.459Z,9.2
2023-11-21T16:46:16.564Z,9.2
2023-11-21T16:47:33.668Z,9.1
2023-11-21T16:48:50.773Z,9.1
2023-11-21T16:50:07.877Z,9
2023-11-21T16:51:24.982Z,9
2023-11-21T16:52:42.086Z,9
2023-11-21T16:53:59.191Z,8.9
2023-11-21T16:55:16.296Z,8.9
2023-11-21T16:56:32.417Z,8.8
2023-11-21T16:57:49.521Z,8.7
2023-11-21T16:59:06.626Z,8.7
2023-11-21T17:00:23.730Z,8.7
2023-11-21T17:01:40.835Z,8.7
2023-11-21T17:02:57.939Z,8.6
2023-11-21T17:04:15.044Z,8.6
2023-11-21T17:05:32.149Z,8.6
2023-11-21T17:06:49.255Z,8.6
2023-11-21T17:08:06.359Z,8.4
2023-11-21T17:09:23.463Z,8.4
2023-11-21T17:10:40.568Z,8.5
2023-11-21T17:11:57.674Z,8.5
2023-11-21T17:13:13.794Z,8.5
2023-11-21T17:14:30.899Z,8.5
2023-11-21T17:15:48.004Z,8.4
2023-11-21T17:17:05.109Z,8.3
2023-11-21T17:18:22.213Z,8.3
2023-11-21T17:19:39.318Z,8.3
2023-11-21T17:20:56.422Z,8.2
2023-11-21T17:22:13.525Z,8.2
2023-11-21T17:23:30.630Z,8.2
2023-11-21T17:24:47.734Z,8.1
2023-11-21T17:26:04.839Z,8
2023-11-21T17:27:21.944Z,8
2023-11-21T17:28:39.049Z,8
2023-11-21T17:29:55.169Z,8.1
2023-11-21T17:31:12.274Z,8
2023-11-21T17:32:29.379Z,8.1
2023-11-21T17:33:46.483Z,8.1
2023-11-21T17:35:03.588Z,8
2023-11-21T17:36:20.693Z,8